createdAt,value
2019-06-10T00:01:42.727Z,20.10
2019-06-10T00:07:25.609Z,20.10
2019-06-10T00:12:31.490Z,20.10
2019-06-10T00:17:59.255Z,20.10
2019-06-10T00:23:27.162Z,20.10
2019-06-10T00:28:32.443Z,20.20
2019-06-10T00:34:20.662Z,20.10
2019-06-10T00:39:31.154Z,20.10
2019-06-10T00:44:41.515Z,20.20
2019-06-10T00:50:26.188Z,20.20
2019-06-10T00:55:41.758Z,20.20
2019-06-10T01:00:46.996Z,20.10
2019-06-10T01:05:51.954Z,20.10
2019-06-10T01:11:34.452Z,20.10
2019-06-10T01:16:41.365Z,20.10
2019-06-10T01:21:56.326Z,20.10
2019-06-10T01:27:51.386Z,20.10
2019-06-10T01:33:36.240Z,20.10
2019-06-10T01:38:41.084Z,20.00
2019-06-10T01:44:24.241Z,19.90
2019-06-10T01:49:30.789Z,19.90
2019-06-10T01:55:15.578Z,19.80
2019-06-10T02:00:25.961Z,19.80
2019-06-10T02:06:08.783Z,19.80
2019-06-10T02:11:18.944Z,19.90
2019-06-10T02:17:01.250Z,19.90
2019-06-10T02:22:06.860Z,19.90
2019-06-10T02:27:52.285Z,20.00
2019-06-10T02:33:02.478Z,19.90
2019-06-10T02:38:44.582Z,19.90
2019-06-10T02:43:54.875Z,19.90
2019-06-10T02:49:19.915Z,19.80
2019-06-10T02:54:09.475Z,19.80
2019-06-10T02:59:26.597Z,19.80
2019-06-10T03:04:32.582Z,19.90
2019-06-10T03:10:13.726Z,20.00
2019-06-10T03:15:26.422Z,20.00
2019-06-10T03:20:33.638Z,20.00
2019-06-10T03:25:38.420Z,20.00
2019-06-10T03:30:53.521Z,20.10
2019-06-10T03:35:53.329Z,20.10
2019-06-10T03:40:58.328Z,20.20
2019-06-10T03:46:10.074Z,20.20
2019-06-10T03:51:15.117Z,20.20
2019-06-10T03:56:23.281Z,20.30
2019-06-10T04:02:05.034Z,20.40
2019-06-10T04:07:09.924Z,20.50
2019-06-10T04:12:55.118Z,20.80
2019-06-10T04:18:03.368Z,20.90
2019-06-10T04:23:07.521Z,21.00
2019-06-10T04:28:13.335Z,21.10
2019-06-10T04:33:20.882Z,21.20
2019-06-10T04:38:27.515Z,21.20
2019-06-10T04:43:32.950Z,21.20
2019-06-10T04:48:37.961Z,21.20
2019-06-10T04:53:43.966Z,21.20
2019-06-10T04:58:58.581Z,21.20
2019-06-10T05:09:59.489Z,21.20
2019-06-10T05:15:08.325Z,21.40
2019-06-10T05:20:13.676Z,21.60
2019-06-10T05:31:47.236Z,21.90
2019-06-10T05:36:56.018Z,22.10
2019-06-10T05:42:12.741Z,22.10
2019-06-10T05:53:23.127Z,22.20
2019-06-10T05:59:03.808Z,22.40
2019-06-10T06:16:13.721Z,23.00
2019-06-10T06:27:26.748Z,23.50
2019-06-10T06:44:43.350Z,23.70
2019-06-10T06:56:34.529Z,24.40
2019-06-10T07:01:44.234Z,24.20
2019-06-10T07:07:14.298Z,24.20
2019-06-10T07:12:27.309Z,24.50
2019-06-10T07:17:36.275Z,24.50
2019-06-10T07:28:47.040Z,25.50
2019-06-10T07:33:52.831Z,25.80
2019-06-10T07:44:59.316Z,25.70
2019-06-10T07:55:56.728Z,25.40
2019-06-10T08:07:08.528Z,25.60
2019-06-10T08:18:15.396Z,25.40
2019-06-10T08:24:03.328Z,25.90
2019-06-10T08:29:09.316Z,26.20
2019-06-10T08:34:54.123Z,26.30
2019-06-10T08:46:05.754Z,26.90
2019-06-10T08:51:23.646Z,27.20
2019-06-10T08:57:07.184Z,27.40
2019-06-10T09:02:16.870Z,27.60
2019-06-10T09:08:13.499Z,28.10
2019-06-10T09:13:57.264Z,28.40
2019-06-10T09:19:14.001Z,28.60
2019-06-10T09:30:33.354Z,27.90
2019-06-10T09:35:41.778Z,28.50
2019-06-10T09:41:36.305Z,28.70
2019-06-10T09:46:38.524Z,28.90
2019-06-10T09:52:29.806Z,29.20
2019-06-10T09:58:16.725Z,29.80
2019-06-10T10:03:23.435Z,30.60
2019-06-10T10:09:06.939Z,30.90
2019-06-10T10:14:16.436Z,31.10
2019-06-10T10:19:58.980Z,31.70
2019-06-10T10:25:07.673Z,32.10
2019-06-10T10:30:55.215Z,31.90
2019-06-10T10:36:27.131Z,32.30
2019-06-10T10:41:37.648Z,32.00
2019-06-10T10:46:45.484Z,31.90
2019-06-10T10:52:32.857Z,33.10
2019-06-10T10:57:47.538Z,33.00
2019-06-10T11:03:30.187Z,32.50
2019-06-10T11:08:36.231Z,32.00
2019-06-10T11:14:23.059Z,31.50
2019-06-10T11:19:28.324Z,31.70
2019-06-10T11:25:12.593Z,31.80
2019-06-10T11:30:18.096Z,32.10
2019-06-10T11:35:23.938Z,32.50
2019-06-10T11:40:31.613Z,32.60
2019-06-10T11:45:48.284Z,32.90
2019-06-10T11:51:00.221Z,32.80
2019-06-10T11:56:45.497Z,32.40
2019-06-10T12:01:52.597Z,33.20
2019-06-10T12:07:34.215Z,34.60
2019-06-10T12:12:45.723Z,35.90
2019-06-10T12:18:29.132Z,37.00
2019-06-10T12:23:40.277Z,37.20
2019-06-10T12:28:46.726Z,35.20
2019-06-10T12:33:55.363Z,34.50
2019-06-10T12:39:06.406Z,35.70
2019-06-10T12:44:14.296Z,38.30
2019-06-10T12:50:04.101Z,39.60
2019-06-10T12:55:08.530Z,38.60
2019-06-10T13:00:22.705Z,36.70
2019-06-10T13:05:29.236Z,38.20
2019-06-10T13:16:36.595Z,38.20
2019-06-10T13:22:24.603Z,36.60
2019-06-10T13:28:08.322Z,37.70
2019-06-10T13:33:15.505Z,37.40
2019-06-10T13:38:57.619Z,38.00
2019-06-10T13:44:08.865Z,41.10
2019-06-10T13:56:28.790Z,42.70
2019-06-10T14:01:21.404Z,43.90
2019-06-10T14:06:57.964Z,43.80
2019-06-10T14:12:05.982Z,43.80
2019-06-10T14:17:47.460Z,43.40
2019-06-10T14:22:52.985Z,42.10
2019-06-10T14:27:58.733Z,43.00
2019-06-10T14:33:04.521Z,43.30
2019-06-10T14:38:51.121Z,43.90
2019-06-10T14:43:57.477Z,44.10
2019-06-10T14:49:04.694Z,43.80
2019-06-10T14:54:12.103Z,43.60
2019-06-10T14:59:58.746Z,43.50
2019-06-10T15:05:07.134Z,43.10
2019-06-10T15:10:18.220Z,42.90
2019-06-10T15:15:24.590Z,42.20
2019-06-10T15:20:32.875Z,40.70
2019-06-10T15:26:16.162Z,38.80
2019-06-10T15:31:24.371Z,37.50
2019-06-10T15:37:08.919Z,37.70
2019-06-10T15:42:22.553Z,37.90
2019-06-10T15:48:05.955Z,38.40
2019-06-10T15:53:15.394Z,39.40
2019-06-10T15:58:54.387Z,41.50
2019-06-10T16:04:00.122Z,43.00
2019-06-10T16:09:42.713Z,43.00
2019-06-10T16:14:53.007Z,42.70
2019-06-10T16:20:37.997Z,41.20
2019-06-10T16:25:45.464Z,39.50
2019-06-10T16:30:53.653Z,38.80
2019-06-10T16:36:02.999Z,39.50
2019-06-10T16:41:06.459Z,39.10
2019-06-10T16:46:49.390Z,40.10
2019-06-10T16:51:55.232Z,40.50
2019-06-10T16:57:03.738Z,39.20
2019-06-10T17:02:09.953Z,38.80
2019-06-10T17:07:53.019Z,39.10
2019-06-10T17:13:05.076Z,39.60
2019-06-10T17:18:46.725Z,39.20
2019-06-10T17:23:54.196Z,38.80
2019-06-10T17:29:06.394Z,37.40
2019-06-10T17:34:16.441Z,36.30
2019-06-10T17:40:04.935Z,35.30
2019-06-10T17:45:10.024Z,34.60
2019-06-10T17:50:25.338Z,34.00
2019-06-10T17:56:15.544Z,33.40
2019-06-10T18:01:57.014Z,32.90
2019-06-10T18:07:04.766Z,32.50
2019-06-10T18:12:12.869Z,32.20
2019-06-10T18:17:18.880Z,31.70
2019-06-10T18:23:02.746Z,31.30
2019-06-10T18:28:13.342Z,31.00
2019-06-10T18:33:23.201Z,30.60
2019-06-10T18:38:32.635Z,30.30
2019-06-10T18:44:24.086Z,30.00
2019-06-10T18:49:28.195Z,29.70
2019-06-10T18:54:35.629Z,29.50
2019-06-10T18:59:42.786Z,29.20
2019-06-10T19:04:47.952Z,29.00
2019-06-10T19:09:58.835Z,28.70
2019-06-10T19:15:46.136Z,28.50
2019-06-10T19:22:04.578Z,28.10
2019-06-10T19:27:02.884Z,27.70
2019-06-10T19:32:06.289Z,27.30
2019-06-10T19:37:13.971Z,27.00
2019-06-10T19:42:20.251Z,26.70
2019-06-10T19:47:26.755Z,26.40
2019-06-10T19:52:35.261Z,26.20
2019-06-10T19:57:42.080Z,25.90
2019-06-10T20:02:48.743Z,25.80
2019-06-10T20:08:32.902Z,25.50
2019-06-10T20:13:38.610Z,25.40
2019-06-10T20:19:22.283Z,25.20
2019-06-10T20:24:29.298Z,25.00
2019-06-10T20:29:37.912Z,24.90
2019-06-10T20:34:47.221Z,24.70
2019-06-10T20:40:29.039Z,24.60
2019-06-10T20:45:48.009Z,24.50
2019-06-10T20:51:48.656Z,24.30
2019-06-10T20:56:45.530Z,24.20
2019-06-10T21:02:35.700Z,24.10
2019-06-10T21:07:44.226Z,23.90
2019-06-10T21:13:33.238Z,23.80
2019-06-10T21:18:40.296Z,23.80
2019-06-10T21:24:02.646Z,23.60
2019-06-10T21:29:14.168Z,23.60
2019-06-10T21:34:19.431Z,23.40
2019-06-10T21:39:28.071Z,23.40
2019-06-10T21:44:33.399Z,23.40
2019-06-10T21:49:38.613Z,23.40
2019-06-10T21:55:22.477Z,23.30
2019-06-10T22:00:29.502Z,23.20
2019-06-10T22:06:12.317Z,23.10
2019-06-10T22:11:17.987Z,23.10
2019-06-10T22:17:03.062Z,23.00
2019-06-10T22:22:08.741Z,23.10
2019-06-10T22:27:50.506Z,23.40
2019-06-10T22:33:03.382Z,23.50
2019-06-10T22:38:08.627Z,23.60
2019-06-10T22:43:13.824Z,23.60
2019-06-10T22:48:57.437Z,23.70
2019-06-10T22:54:04.353Z,23.90
2019-06-10T22:59:09.491Z,24.30
2019-06-10T23:04:15.495Z,24.40
2019-06-10T23:09:22.209Z,24.50
2019-06-10T23:14:27.666Z,24.40
2019-06-10T23:19:33.353Z,24.40
2019-06-10T23:24:38.963Z,24.30
2019-06-10T23:29:44.545Z,24.30
2019-06-10T23:34:51.518Z,24.20
2019-06-10T23:40:37.777Z,24.10
2019-06-10T23:45:42.938Z,24.00
2019-06-10T23:50:48.218Z,23.90
2019-06-10T23:55:56.407Z,23.80
